Time;durP1;ratioP1;P1;durP2;ratioP2;P2;SDS_P1;SDS_P2;PMS_P1;PMS_P2;Temp;Humidity;BMP_temperature;BMP_pressure;BME280_temperature;BME280_humidity;BME280_pressure;Samples;Min_cycle;Max_cycle;Signal;HPM_P1;HPM_P2
2022/01/04 00:00:17;;;;;;;8.70;5.97;;;9.60;93.80;;;;;;2105601;28;20487;-91
2022/01/04 00:01:18;;;;;;;7.35;5.57;;;9.60;93.90;;;;;;2099488;28;20040;-92
2022/01/04 00:02:18;;;;;;;7.40;5.22;;;9.60;93.90;;;;;;2089772;28;20076;-91
2022/01/04 00:03:19;;;;;;;7.05;5.53;;;9.60;93.90;;;;;;2108234;28;20039;-92
2022/01/04 00:04:20;;;;;;;7.28;5.47;;;9.60;93.90;;;;;;2099380;28;20162;-91
2022/01/04 00:05:20;;;;;;;8.18;5.53;;;9.60;93.90;;;;;;2090347;28;20474;-90
2022/01/04 00:06:21;;;;;;;8.30;5.57;;;9.50;93.90;;;;;;2090403;28;20052;-91
2022/01/04 00:07:22;;;;;;;7.80;5.70;;;9.60;93.90;;;;;;2095191;28;20041;-91
2022/01/04 00:08:23;;;;;;;6.80;5.72;;;9.50;93.90;;;;;;2101727;28;20480;-92
2022/01/04 00:09:24;;;;;;;7.55;5.35;;;9.50;93.90;;;;;;2099007;28;20044;-91
2022/01/04 00:10:27;;;;;;;7.95;5.60;;;9.50;93.90;;;;;;2098935;28;20478;-90
2022/01/04 00:14:06;;;;;;;7.57;5.47;;;9.50;93.90;;;;;;2090761;28;20123;-91
2022/01/04 00:15:07;;;;;;;8.10;5.65;;;9.40;93.90;;;;;;2090577;28;20120;-91
2022/01/04 00:16:10;;;;;;;7.32;4.82;;;9.40;93.90;;;;;;2089979;28;20033;-91
2022/01/04 00:17:11;;;;;;;7.38;5.47;;;9.40;93.90;;;;;;2077490;28;20045;-91
2022/01/04 00:18:12;;;;;;;6.97;5.40;;;9.40;94.00;;;;;;2090092;28;20518;-91
2022/01/04 00:19:13;;;;;;;9.35;5.20;;;9.40;94.30;;;;;;2099005;28;20055;-92
2022/01/04 00:20:13;;;;;;;8.57;5.60;;;9.40;94.00;;;;;;2093928;28;20024;-91
2022/01/04 00:21:14;;;;;;;8.90;5.68;;;9.40;94.00;;;;;;2080022;28;20045;-91
2022/01/04 00:22:15;;;;;;;8.38;5.65;;;9.40;94.00;;;;;;2074155;28;20077;-91
2022/01/04 00:23:17;;;;;;;8.38;5.43;;;9.40;94.00;;;;;;2066286;28;20042;-91
2022/01/04 00:24:17;;;;;;;6.88;5.35;;;9.40;94.00;;;;;;2066040;28;20555;-91
2022/01/04 00:25:18;;;;;;;7.95;5.60;;;9.40;94.00;;;;;;2074402;28;20044;-91
2022/01/04 00:26:19;;;;;;;7.40;4.95;;;9.40;94.00;;;;;;2089848;28;20086;-91
2022/01/04 00:27:19;;;;;;;9.55;4.80;;;9.40;94.10;;;;;;2074796;28;20091;-91
2022/01/04 00:28:20;;;;;;;7.30;5.13;;;9.40;94.00;;;;;;2079617;28;20032;-91
2022/01/04 00:29:21;;;;;;;7.13;5.15;;;9.40;94.00;;;;;;2081630;28;20060;-90
2022/01/04 00:30:24;;;;;;;7.13;5.10;;;9.40;94.00;;;;;;2095381;28;20047;-91
2022/01/04 00:31:24;;;;;;;7.25;5.18;;;9.40;94.00;;;;;;2089368;28;20037;-90
2022/01/04 00:32:25;;;;;;;7.43;5.50;;;9.40;94.00;;;;;;2098791;28;20041;-90
2022/01/04 00:33:25;;;;;;;8.48;5.40;;;9.40;94.00;;;;;;2098556;28;20044;-91
2022/01/04 00:34:26;;;;;;;6.78;5.00;;;9.40;94.00;;;;;;2098051;28;20039;-91
2022/01/04 00:35:27;;;;;;;7.30;5.00;;;9.40;94.00;;;;;;2089744;28;20041;-91
2022/01/04 00:36:27;;;;;;;5.65;4.68;;;9.40;94.00;;;;;;2094997;28;21060;-91
2022/01/04 00:37:28;;;;;;;8.80;4.95;;;9.40;94.00;;;;;;2091790;28;20037;-91
2022/01/04 00:38:29;;;;;;;7.43;4.78;;;9.40;94.00;;;;;;2082103;28;20484;-91
2022/01/04 00:39:29;;;;;;;6.60;4.55;;;9.40;94.00;;;;;;2081791;28;20036;-90
2022/01/04 00:40:31;;;;;;;6.75;5.18;;;9.40;94.00;;;;;;2094401;28;20146;-91
2022/01/04 00:41:31;;;;;;;6.43;4.40;;;9.40;94.00;;;;;;2099835;28;20050;-91
2022/01/04 00:42:32;;;;;;;6.53;4.78;;;9.40;94.00;;;;;;2097323;28;20032;-91
2022/01/04 00:43:33;;;;;;;6.47;4.57;;;9.40;94.00;;;;;;2098603;28;20443;-91
2022/01/04 00:44:34;;;;;;;6.75;4.35;;;9.40;94.00;;;;;;2099122;28;20075;-91
2022/01/04 00:45:36;;;;;;;6.47;4.60;;;9.40;94.00;;;;;;2095221;28;20441;-90
2022/01/04 00:46:37;;;;;;;6.63;4.53;;;9.40;94.00;;;;;;2097933;28;20545;-91
2022/01/04 00:49:11;;;;;;;6.18;4.30;;;9.40;94.00;;;;;;2080616;28;20030;-91
2022/01/04 00:50:13;;;;;;;6.35;4.20;;;9.50;94.00;;;;;;2089309;28;20036;-91
2022/01/04 00:51:13;;;;;;;6.32;4.53;;;9.50;94.00;;;;;;2091357;28;20071;-91
2022/01/04 00:52:16;;;;;;;8.07;4.88;;;9.50;94.00;;;;;;2094931;28;20029;-91
2022/01/04 00:53:17;;;;;;;7.55;5.15;;;9.40;94.00;;;;;;2081724;28;20041;-90
2022/01/04 00:54:19;;;;;;;6.60;4.47;;;9.40;94.00;;;;;;2090050;28;20530;-90
2022/01/04 00:55:20;;;;;;;8.05;4.72;;;9.40;94.00;;;;;;2077141;28;20048;-90
2022/01/04 00:56:20;;;;;;;7.25;5.35;;;9.40;94.00;;;;;;2073861;28;20068;-90
2022/01/04 00:57:21;;;;;;;7.55;5.22;;;9.40;94.00;;;;;;2078476;28;20531;-90
2022/01/04 00:58:21;;;;;;;8.73;5.20;;;9.40;94.00;;;;;;2099584;28;20063;-91
2022/01/04 00:59:22;;;;;;;8.02;5.20;;;9.40;94.00;;;;;;2100103;28;20039;-90
2022/01/04 01:00:24;;;;;;;7.82;5.60;;;9.40;94.00;;;;;;2099332;28;20170;-90
2022/01/04 01:01:25;;;;;;;7.75;5.30;;;9.40;94.00;;;;;;2084809;28;20531;-90
2022/01/04 01:02:26;;;;;;;6.30;4.95;;;9.40;94.00;;;;;;2091364;28;20033;-90
2022/01/04 01:03:28;;;;;;;7.70;5.18;;;9.40;94.00;;;;;;2100903;28;20123;-91
2022/01/04 01:04:28;;;;;;;8.52;5.60;;;9.40;94.00;;;;;;2078352;28;20036;-91
2022/01/04 01:05:29;;;;;;;8.02;5.50;;;9.40;94.00;;;;;;2082845;28;20049;-90
2022/01/04 01:06:30;;;;;;;8.15;5.50;;;9.40;94.00;;;;;;2097344;28;20582;-90
2022/01/04 01:07:31;;;;;;;6.88;5.28;;;9.40;94.00;;;;;;2102855;28;20047;-88
2022/01/04 01:08:31;;;;;;;7.10;5.50;;;9.40;94.00;;;;;;2103526;28;20009;-88
2022/01/04 01:09:33;;;;;;;7.32;5.15;;;9.40;94.00;;;;;;2107853;28;20484;-88
2022/01/04 01:11:37;;;;;;;8.30;5.20;;;9.40;94.00;;;;;;2100557;28;20029;-88
2022/01/04 01:12:38;;;;;;;8.25;5.28;;;9.40;94.30;;;;;;2103794;28;20032;-90
2022/01/04 01:13:39;;;;;;;7.03;5.00;;;9.50;94.00;;;;;;2105263;28;20020;-88
2022/01/04 01:14:39;;;;;;;8.43;5.25;;;9.50;94.00;;;;;;2094694;28;20139;-91
2022/01/04 01:15:41;;;;;;;7.88;5.45;;;9.40;94.00;;;;;;2090099;28;20168;-91
2022/01/04 01:16:42;;;;;;;9.15;5.30;;;9.50;94.00;;;;;;2092721;28;20053;-91
2022/01/04 01:17:43;;;;;;;8.38;5.60;;;9.50;94.00;;;;;;2098784;28;20025;-91
2022/01/04 01:18:44;;;;;;;7.70;5.25;;;9.40;94.00;;;;;;2089797;28;20464;-91
2022/01/04 01:19:44;;;;;;;8.30;5.63;;;9.50;94.00;;;;;;2089649;28;20511;-92
2022/01/04 01:20:49;;;;;;;6.65;5.20;;;9.50;94.00;;;;;;2097995;28;20036;-91
2022/01/04 01:21:50;;;;;;;6.70;5.22;;;9.40;94.00;;;;;;2090233;28;20041;-92
2022/01/04 01:22:51;;;;;;;6.90;5.18;;;9.50;94.00;;;;;;2081307;28;20088;-91
2022/01/04 01:23:51;;;;;;;7.38;5.60;;;9.50;94.00;;;;;;2081999;28;20042;-91
2022/01/04 01:24:52;;;;;;;7.30;5.80;;;9.40;94.30;;;;;;2095890;28;20025;-92
2022/01/04 01:25:53;;;;;;;6.90;5.57;;;9.40;94.00;;;;;;2073353;28;20050;-90
2022/01/04 01:26:53;;;;;;;6.95;5.30;;;9.40;94.00;;;;;;2074201;28;20065;-91
2022/01/04 01:27:54;;;;;;;6.90;5.40;;;9.40;94.00;;;;;;2084314;28;20570;-91
2022/01/04 01:28:56;;;;;;;6.88;5.32;;;9.50;94.00;;;;;;2098194;28;20036;-92
2022/01/04 01:29:57;;;;;;;7.32;5.68;;;9.40;94.00;;;;;;2102990;28;20140;-90
2022/01/04 01:30:58;;;;;;;6.97;5.25;;;9.40;94.00;;;;;;2098521;28;20494;-91
2022/01/04 01:31:58;;;;;;;7.50;5.22;;;9.50;94.00;;;;;;2098355;28;20192;-90
2022/01/04 01:32:59;;;;;;;8.02;5.72;;;9.50;94.30;;;;;;2098229;28;20485;-90
2022/01/04 01:33:59;;;;;;;7.63;5.45;;;9.50;94.00;;;;;;2081085;28;20053;-91
2022/01/04 01:35:00;;;;;;;6.45;5.50;;;9.50;94.00;;;;;;2073296;28;20046;-91
2022/01/04 01:36:01;;;;;;;6.70;5.63;;;9.50;94.00;;;;;;2081808;28;20029;-90
2022/01/04 01:37:02;;;;;;;6.82;5.22;;;9.50;94.00;;;;;;2098312;28;20482;-91
2022/01/04 01:38:04;;;;;;;7.15;5.22;;;9.40;94.00;;;;;;2089946;28;20064;-91
2022/01/04 01:39:05;;;;;;;9.48;5.70;;;9.50;94.00;;;;;;2081954;28;20038;-91
2022/01/04 01:40:06;;;;;;;7.07;5.28;;;9.50;94.00;;;;;;2087279;28;20125;-91
2022/01/04 01:41:07;;;;;;;7.05;5.32;;;9.50;94.00;;;;;;2094535;28;20028;-90
2022/01/04 01:42:08;;;;;;;7.40;5.40;;;9.50;94.00;;;;;;2089908;28;20483;-91
2022/01/04 01:43:09;;;;;;;7.20;5.40;;;9.50;94.00;;;;;;2083767;28;20033;-91
2022/01/04 01:44:10;;;;;;;8.05;6.03;;;9.50;94.00;;;;;;2095624;28;20039;-90
2022/01/04 01:45:13;;;;;;;7.72;5.82;;;9.50;94.00;;;;;;2097945;28;20470;-90
2022/01/04 01:46:13;;;;;;;7.55;6.15;;;9.50;94.00;;;;;;2097199;28;20032;-90
2022/01/04 01:47:14;;;;;;;7.07;5.47;;;9.50;94.00;;;;;;2081155;28;20124;-91
2022/01/04 01:48:15;;;;;;;6.60;5.70;;;9.40;94.00;;;;;;2081735;28;20034;-90
2022/01/04 01:49:15;;;;;;;8.32;5.93;;;9.40;94.00;;;;;;2081724;28;20121;-91
2022/01/04 01:50:17;;;;;;;7.15;5.80;;;9.40;94.00;;;;;;2093414;28;20043;-91
2022/01/04 01:51:18;;;;;;;6.60;5.70;;;9.40;94.00;;;;;;2090339;28;20064;-91
2022/01/04 01:52:18;;;;;;;8.93;5.75;;;9.50;94.00;;;;;;2081734;28;20038;-91
2022/01/04 01:53:19;;;;;;;7.95;5.55;;;9.40;94.00;;;;;;2081609;28;20061;-91
2022/01/04 01:54:21;;;;;;;8.75;5.97;;;9.50;94.00;;;;;;2074561;28;20042;-91
2022/01/04 01:55:22;;;;;;;6.88;5.60;;;9.40;94.00;;;;;;2081304;28;20041;-91
2022/01/04 01:56:24;;;;;;;7.53;5.35;;;9.40;94.00;;;;;;2073320;28;20026;-91
2022/01/04 01:57:24;;;;;;;7.20;5.65;;;9.40;94.00;;;;;;2084768;28;20086;-90
2022/01/04 01:58:25;;;;;;;7.03;5.50;;;9.40;94.00;;;;;;2097977;28;20127;-90
2022/01/04 01:59:26;;;;;;;7.10;5.80;;;9.40;94.00;;;;;;2097178;28;20056;-91
2022/01/04 02:00:28;;;;;;;7.35;5.60;;;9.50;94.00;;;;;;2081509;28;20400;-90
2022/01/04 02:01:29;;;;;;;9.25;6.40;;;9.40;94.00;;;;;;2082061;28;20033;-90
2022/01/04 02:02:30;;;;;;;8.02;6.20;;;9.40;94.00;;;;;;2089634;28;20709;-90
2022/01/04 02:03:30;;;;;;;8.68;6.78;;;9.40;94.00;;;;;;2073269;28;20543;-90
2022/01/04 02:04:31;;;;;;;11.13;7.40;;;9.40;94.00;;;;;;2089751;28;20574;-89
2022/01/04 02:05:32;;;;;;;9.32;7.45;;;9.40;94.00;;;;;;2093752;28;20529;-90
2022/01/04 02:06:33;;;;;;;9.43;8.00;;;9.40;94.00;;;;;;2089071;28;20059;-91
2022/01/04 02:07:34;;;;;;;9.63;6.90;;;9.40;94.00;;;;;;2081309;28;20143;-91
2022/01/04 02:08:35;;;;;;;7.57;6.35;;;9.40;94.00;;;;;;2098041;28;20032;-90
2022/01/04 02:09:40;;;;;;;10.20;7.97;;;9.40;94.00;;;;;;2098758;28;20490;-90
2022/01/04 02:10:42;;;;;;;9.52;6.97;;;9.40;94.00;;;;;;2098130;28;20101;-91
2022/01/04 02:11:43;;;;;;;8.45;6.60;;;9.40;94.00;;;;;;2081291;28;20483;-91
2022/01/04 02:12:49;;;;;;;9.50;6.70;;;9.40;94.00;;;;;;2081382;28;20056;-90
2022/01/04 02:13:50;;;;;;;7.72;6.53;;;9.40;94.10;;;;;;2069935;28;20092;-91
2022/01/04 02:14:51;;;;;;;9.65;6.70;;;9.30;94.00;;;;;;2075114;28;20111;-90
2022/01/04 02:15:52;;;;;;;7.57;6.55;;;9.30;94.00;;;;;;2091041;28;20048;-91
2022/01/04 02:16:53;;;;;;;7.60;6.47;;;9.40;94.00;;;;;;2090375;28;20051;-91
2022/01/04 02:17:54;;;;;;;8.35;6.68;;;9.30;94.00;;;;;;2087088;28;20093;-90
2022/01/04 02:19:03;;;;;;;7.78;6.00;;;9.40;94.00;;;;;;2097020;28;20025;-86
2022/01/04 02:20:06;;;;;;;8.80;6.32;;;9.30;94.00;;;;;;2092375;28;20048;-85
2022/01/04 02:21:06;;;;;;;9.95;6.95;;;9.40;94.00;;;;;;2090426;28;20026;-90
2022/01/04 02:22:07;;;;;;;8.25;7.07;;;9.30;94.30;;;;;;2081643;28;20041;-91
2022/01/04 02:23:08;;;;;;;8.18;7.00;;;9.30;94.00;;;;;;2081302;28;20124;-91
2022/01/04 02:24:09;;;;;;;9.30;6.82;;;9.30;94.00;;;;;;2097171;28;20059;-91
2022/01/04 02:25:10;;;;;;;7.63;6.50;;;9.30;94.00;;;;;;2097478;28;20033;-91
2022/01/04 02:26:11;;;;;;;9.60;7.53;;;9.30;94.00;;;;;;2097933;28;20119;-91
2022/01/04 02:27:13;;;;;;;8.40;6.85;;;9.30;94.00;;;;;;2095645;28;20066;-90
2022/01/04 02:28:18;;;;;;;8.75;6.63;;;9.40;94.00;;;;;;2095879;28;20119;-90
2022/01/04 02:29:18;;;;;;;10.05;7.03;;;9.30;94.00;;;;;;2098238;28;20090;-89
2022/01/04 02:30:20;;;;;;;8.00;6.63;;;9.30;94.00;;;;;;2089349;28;20091;-91
2022/01/04 02:31:21;;;;;;;9.63;7.30;;;9.30;94.00;;;;;;2089530;28;20033;-91
2022/01/04 02:32:22;;;;;;;8.73;7.10;;;9.30;94.00;;;;;;2089531;28;20502;-91
2022/01/04 02:33:22;;;;;;;9.27;7.43;;;9.30;94.00;;;;;;2072681;28;20041;-91
2022/01/04 02:34:23;;;;;;;9.48;7.38;;;9.30;94.00;;;;;;2072727;28;20435;-91
2022/01/04 02:35:27;;;;;;;8.80;7.00;;;9.30;94.00;;;;;;2083780;28;20037;-92
2022/01/04 02:36:27;;;;;;;9.25;7.20;;;9.30;94.00;;;;;;2087535;28;20040;-90
2022/01/04 02:37:30;;;;;;;8.38;6.95;;;9.30;94.00;;;;;;2078237;28;20278;-91
2022/01/04 02:38:31;;;;;;;9.50;7.25;;;9.30;94.30;;;;;;2080695;28;20551;-91
2022/01/04 02:39:35;;;;;;;9.15;6.65;;;9.30;94.00;;;;;;2081253;28;20037;-91
2022/01/04 02:40:35;;;;;;;9.07;6.78;;;9.30;94.00;;;;;;2090058;28;20025;-92
2022/01/04 02:41:36;;;;;;;10.65;6.50;;;9.30;94.00;;;;;;2089492;28;20415;-91
2022/01/04 02:42:37;;;;;;;8.93;6.80;;;9.30;94.00;;;;;;2072287;28;20034;-92
2022/01/04 02:43:38;;;;;;;9.32;6.85;;;9.30;94.00;;;;;;2081530;28;20463;-91
2022/01/04 02:44:39;;;;;;;9.07;6.70;;;9.30;94.30;;;;;;2089334;28;20052;-91
2022/01/04 02:45:39;;;;;;;7.30;6.05;;;9.30;94.10;;;;;;2078853;28;20132;-90
2022/01/04 02:46:40;;;;;;;7.72;6.07;;;9.30;94.10;;;;;;2080682;28;20125;-90
2022/01/04 02:47:41;;;;;;;8.35;6.25;;;9.30;94.10;;;;;;2071917;28;20137;-91
2022/01/04 02:48:43;;;;;;;7.75;6.38;;;9.30;94.10;;;;;;2073309;28;20033;-91
2022/01/04 02:49:44;;;;;;;9.45;6.32;;;9.30;94.10;;;;;;2079940;28;20040;-91
2022/01/04 02:50:45;;;;;;;7.72;6.00;;;9.30;94.10;;;;;;2081606;28;20087;-91
2022/01/04 02:51:45;;;;;;;7.53;5.93;;;9.30;94.10;;;;;;2072052;28;20630;-91
2022/01/04 02:52:46;;;;;;;7.78;6.32;;;9.30;94.10;;;;;;2072903;28;20567;-90
2022/01/04 02:53:47;;;;;;;7.50;6.07;;;9.30;94.10;;;;;;2080705;28;20065;-91
2022/01/04 02:54:48;;;;;;;7.03;6.18;;;9.30;94.10;;;;;;2082951;28;20033;-90
2022/01/04 02:55:48;;;;;;;9.15;6.90;;;9.30;94.00;;;;;;2073297;28;20037;-91
2022/01/04 02:56:49;;;;;;;8.65;6.57;;;9.30;94.00;;;;;;2065382;28;20027;-90
2022/01/04 02:57:49;;;;;;;6.90;5.93;;;9.30;94.00;;;;;;2089673;28;20096;-89
2022/01/04 02:58:50;;;;;;;7.60;6.20;;;9.30;94.00;;;;;;2091973;28;20052;-90
2022/01/04 02:59:51;;;;;;;7.47;6.50;;;9.30;94.00;;;;;;2101229;28;20037;-90
2022/01/04 03:00:51;;;;;;;6.75;5.90;;;9.30;94.00;;;;;;2114946;28;20021;-90
2022/01/04 03:01:52;;;;;;;7.40;5.88;;;9.30;94.10;;;;;;2106366;28;20064;-90
2022/01/04 03:02:53;;;;;;;9.93;6.88;;;9.30;94.10;;;;;;2097319;28;20017;-91
2022/01/04 03:03:54;;;;;;;7.72;5.97;;;9.20;94.00;;;;;;2086228;28;20041;-91
2022/01/04 03:04:54;;;;;;;8.75;6.30;;;9.20;94.00;;;;;;2073946;28;20586;-91
2022/01/04 03:05:55;;;;;;;8.00;6.70;;;9.20;94.30;;;;;;2069551;28;20034;-91
2022/01/04 03:06:56;;;;;;;8.50;6.80;;;9.30;94.10;;;;;;2077670;28;20073;-91
2022/01/04 03:07:56;;;;;;;10.15;7.07;;;9.20;94.00;;;;;;2079707;28;20042;-91
2022/01/04 03:08:57;;;;;;;7.43;6.45;;;9.20;94.00;;;;;;2075605;28;20117;-91
2022/01/04 03:09:58;;;;;;;7.93;6.78;;;9.20;94.00;;;;;;2093737;28;20061;-90
2022/01/04 03:10:58;;;;;;;9.00;6.50;;;9.20;94.00;;;;;;2101414;28;20086;-91
2022/01/04 03:11:59;;;;;;;7.78;6.50;;;9.20;94.00;;;;;;2092793;28;20415;-91
2022/01/04 03:13:02;;;;;;;7.57;6.15;;;9.20;94.00;;;;;;2084821;28;20510;-91
2022/01/04 03:14:02;;;;;;;8.70;6.70;;;9.20;94.00;;;;;;2088380;28;20025;-91
2022/01/04 03:15:03;;;;;;;7.88;6.53;;;9.20;94.00;;;;;;2079300;28;20182;-90
2022/01/04 03:16:04;;;;;;;8.82;7.05;;;9.20;94.00;;;;;;2082743;28;20036;-91
2022/01/04 03:17:05;;;;;;;9.57;6.93;;;9.20;94.00;;;;;;2090620;28;20033;-91
2022/01/04 03:18:06;;;;;;;8.10;6.53;;;9.20;94.00;;;;;;2074638;28;20038;-92
2022/01/04 03:19:07;;;;;;;8.07;6.53;;;9.20;94.00;;;;;;2074692;28;20034;-91
2022/01/04 03:20:09;;;;;;;8.18;6.60;;;9.20;94.00;;;;;;2082948;28;20038;-90
2022/01/04 03:21:09;;;;;;;8.57;6.15;;;9.20;94.00;;;;;;2082910;28;20040;-91
2022/01/04 03:22:10;;;;;;;9.00;6.50;;;9.20;94.00;;;;;;2074216;28;20056;-91
2022/01/04 03:23:10;;;;;;;9.88;6.90;;;9.20;94.00;;;;;;2081586;28;20037;-91
2022/01/04 03:24:13;;;;;;;8.75;6.80;;;9.20;94.00;;;;;;2093595;28;20076;-90
2022/01/04 03:25:14;;;;;;;9.55;6.85;;;9.20;94.00;;;;;;2081745;28;20037;-91
2022/01/04 03:26:15;;;;;;;8.15;6.32;;;9.20;94.00;;;;;;2074604;28;20117;-91
2022/01/04 03:27:15;;;;;;;8.23;6.55;;;9.20;94.00;;;;;;2077123;28;20079;-91
2022/01/04 03:28:19;;;;;;;9.23;6.13;;;9.20;94.00;;;;;;2103163;28;20505;-91
2022/01/04 03:29:20;;;;;;;8.48;6.03;;;9.20;94.00;;;;;;2099904;28;20036;-90
2022/01/04 03:30:21;;;;;;;9.18;6.38;;;9.20;94.00;;;;;;2107744;28;20095;-91
2022/01/04 03:31:22;;;;;;;8.30;6.32;;;9.20;94.00;;;;;;2098964;28;20195;-91
2022/01/04 03:32:23;;;;;;;7.78;6.13;;;9.20;94.00;;;;;;2076711;28;20030;-91
2022/01/04 03:33:23;;;;;;;8.00;6.10;;;9.20;94.00;;;;;;2074570;28;20037;-91
2022/01/04 03:34:25;;;;;;;8.52;6.80;;;9.20;94.00;;;;;;2090457;28;20665;-91
2022/01/04 03:35:26;;;;;;;7.38;6.35;;;9.10;94.00;;;;;;2082670;28;20352;-91
2022/01/04 03:36:27;;;;;;;9.25;6.93;;;9.10;94.00;;;;;;2077861;28;20037;-91
2022/01/04 03:37:27;;;;;;;7.28;6.43;;;9.20;94.00;;;;;;2084249;28;20041;-90
2022/01/04 03:38:28;;;;;;;8.13;6.45;;;9.10;94.00;;;;;;2079906;28;20064;-91
2022/01/04 03:39:29;;;;;;;8.85;6.30;;;9.10;94.00;;;;;;2091018;28;20048;-91
2022/01/04 03:40:30;;;;;;;8.57;6.28;;;9.10;94.00;;;;;;2091581;28;20109;-91
2022/01/04 03:41:33;;;;;;;8.82;6.93;;;9.20;94.00;;;;;;2082487;28;20045;-90
2022/01/04 03:42:33;;;;;;;7.82;6.50;;;9.10;94.00;;;;;;2097347;28;20085;-91
2022/01/04 03:43:37;;;;;;;8.00;6.43;;;9.10;94.00;;;;;;2082724;28;20111;-91
2022/01/04 03:44:37;;;;;;;7.53;6.25;;;9.10;94.00;;;;;;2090779;28;20036;-90
2022/01/04 03:45:38;;;;;;;8.50;6.50;;;9.10;94.00;;;;;;2095879;28;20043;-91
2022/01/04 03:46:39;;;;;;;8.27;6.78;;;9.10;94.00;;;;;;2090337;28;20048;-91
2022/01/04 03:47:39;;;;;;;8.60;6.70;;;9.10;94.00;;;;;;2096389;28;20139;-91
2022/01/04 03:48:40;;;;;;;7.68;6.10;;;9.10;94.00;;;;;;2102790;28;20107;-91
2022/01/04 03:49:41;;;;;;;9.98;6.53;;;9.10;94.00;;;;;;2084124;28;20049;-91
2022/01/04 03:50:42;;;;;;;8.48;6.63;;;9.10;94.20;;;;;;2082580;28;20557;-91
2022/01/04 03:51:43;;;;;;;9.25;6.57;;;9.10;94.00;;;;;;2090894;28;20025;-91
2022/01/04 03:52:43;;;;;;;8.27;6.43;;;9.10;94.00;;;;;;2100267;28;20044;-91
2022/01/04 03:53:44;;;;;;;7.50;6.15;;;9.10;94.00;;;;;;2090589;28;20548;-90
2022/01/04 03:54:45;;;;;;;9.07;6.40;;;9.20;94.00;;;;;;2100688;28;20066;-91
2022/01/04 03:55:45;;;;;;;7.13;6.05;;;9.10;94.00;;;;;;2102247;28;20514;-91
2022/01/04 03:56:46;;;;;;;8.93;6.28;;;9.10;94.00;;;;;;2090509;28;20037;-91
2022/01/04 03:57:47;;;;;;;7.90;6.18;;;9.10;94.00;;;;;;2093184;28;20037;-91
2022/01/04 03:58:47;;;;;;;10.52;7.10;;;9.10;94.00;;;;;;2082932;28;20030;-91
2022/01/04 03:59:48;;;;;;;8.98;6.80;;;9.10;94.00;;;;;;2090437;28;20028;-91
2022/01/04 04:00:49;;;;;;;9.20;6.88;;;9.10;94.00;;;;;;2090853;28;20037;-91
2022/01/04 04:01:50;;;;;;;10.27;6.57;;;9.10;94.00;;;;;;2096517;28;20475;-90
2022/01/04 04:02:50;;;;;;;8.60;6.82;;;9.10;94.00;;;;;;2083767;28;20046;-91
2022/01/04 04:03:51;;;;;;;9.68;6.85;;;9.10;94.00;;;;;;2084806;28;20040;-91
2022/01/04 04:04:52;;;;;;;9.10;7.07;;;9.10;94.00;;;;;;2092156;28;20041;-90
2022/01/04 04:05:53;;;;;;;8.40;6.40;;;9.10;94.00;;;;;;2095381;28;20037;-91
2022/01/04 04:06:53;;;;;;;9.27;6.72;;;9.10;94.00;;;;;;2082012;28;20100;-91
2022/01/04 04:07:54;;;;;;;8.82;6.80;;;9.10;94.00;;;;;;2072349;28;20037;-91
2022/01/04 04:08:56;;;;;;;9.05;6.97;;;9.10;94.00;;;;;;2081199;28;20061;-91
2022/01/04 04:09:57;;;;;;;8.85;7.03;;;9.10;94.00;;;;;;2089847;28;20094;-91
2022/01/04 04:10:58;;;;;;;8.73;6.78;;;9.10;94.30;;;;;;2098429;28;20036;-91
2022/01/04 04:11:58;;;;;;;10.35;6.85;;;9.10;94.00;;;;;;2099247;28;20123;-91
2022/01/04 04:12:59;;;;;;;10.10;7.07;;;9.10;94.00;;;;;;2087878;28;20040;-91
2022/01/04 04:14:00;;;;;;;10.68;7.28;;;9.00;94.00;;;;;;2089054;28;20499;-91
2022/01/04 04:15:04;;;;;;;9.43;7.00;;;9.00;94.00;;;;;;2079764;28;20125;-90
2022/01/04 04:16:05;;;;;;;9.93;6.93;;;9.00;94.00;;;;;;2081818;28;20034;-91
2022/01/04 04:17:05;;;;;;;9.50;6.78;;;9.00;94.00;;;;;;2074125;28;20038;-90
2022/01/04 04:18:07;;;;;;;9.75;6.75;;;9.00;94.00;;;;;;2075233;28;20100;-90
2022/01/04 04:19:08;;;;;;;9.38;6.60;;;9.00;94.00;;;;;;2078008;28;20532;-91
2022/01/04 04:20:09;;;;;;;9.00;7.07;;;9.10;94.10;;;;;;2083180;28;20038;-90
2022/01/04 04:21:10;;;;;;;8.48;6.40;;;9.00;94.00;;;;;;2090596;28;20064;-91
2022/01/04 04:22:11;;;;;;;7.13;5.97;;;9.00;94.00;;;;;;2090372;28;20076;-91
2022/01/04 04:23:12;;;;;;;8.90;6.70;;;9.00;94.10;;;;;;2092053;28;20032;-91
2022/01/04 04:24:12;;;;;;;8.45;6.75;;;9.00;94.10;;;;;;2090641;28;20131;-91
2022/01/04 04:25:13;;;;;;;9.52;6.43;;;9.00;94.10;;;;;;2083803;28;20033;-91
2022/01/04 04:26:15;;;;;;;10.10;7.00;;;9.00;94.10;;;;;;2096690;28;20032;-89
2022/01/04 04:27:15;;;;;;;10.43;7.63;;;9.00;94.10;;;;;;2090174;28;20091;-91
2022/01/04 04:28:16;;;;;;;9.60;8.10;;;9.00;94.00;;;;;;2065958;28;20189;-91
2022/01/04 04:29:17;;;;;;;10.77;7.63;;;9.00;94.00;;;;;;2081646;28;20033;-90
2022/01/04 04:30:18;;;;;;;9.63;7.40;;;9.00;94.00;;;;;;2082170;28;20065;-91
2022/01/04 04:31:18;;;;;;;10.48;8.00;;;9.00;94.00;;;;;;2082290;28;20045;-91
2022/01/04 04:32:19;;;;;;;8.43;7.40;;;8.90;94.00;;;;;;2083287;28;20065;-89
2022/01/04 04:33:19;;;;;;;10.57;7.55;;;8.90;94.10;;;;;;2083412;28;20044;-90
2022/01/04 04:34:20;;;;;;;8.98;6.97;;;8.90;94.10;;;;;;2090052;28;20025;-84
2022/01/04 04:35:21;;;;;;;9.48;7.13;;;9.00;94.10;;;;;;2085842;28;20026;-83
2022/01/04 04:36:22;;;;;;;8.60;6.90;;;8.90;94.10;;;;;;2095091;28;20021;-86
2022/01/04 04:37:22;;;;;;;9.73;7.15;;;9.00;94.10;;;;;;2087537;28;20024;-91
2022/01/04 04:38:23;;;;;;;9.25;6.93;;;9.00;94.10;;;;;;2082314;28;20034;-90
2022/01/04 04:39:24;;;;;;;8.98;7.07;;;9.00;94.10;;;;;;2089954;28;20100;-91
2022/01/04 04:40:24;;;;;;;8.27;6.90;;;9.00;94.10;;;;;;2104066;28;20074;-90
2022/01/04 04:41:25;;;;;;;9.20;6.93;;;9.00;94.10;;;;;;2111210;28;20032;-86
2022/01/04 04:42:26;;;;;;;11.23;7.57;;;9.00;94.10;;;;;;2107966;28;20028;-87
2022/01/04 04:43:27;;;;;;;9.70;6.95;;;9.00;94.10;;;;;;2107432;28;20080;-81
2022/01/04 04:44:27;;;;;;;9.27;7.43;;;9.00;94.10;;;;;;2098064;28;20013;-89
2022/01/04 04:45:28;;;;;;;9.13;7.22;;;9.00;94.10;;;;;;2091129;28;20104;-87
2022/01/04 04:46:28;;;;;;;8.50;7.18;;;9.00;94.10;;;;;;2091245;28;20254;-88
2022/01/04 04:47:29;;;;;;;8.77;7.30;;;9.00;94.10;;;;;;2109004;28;20025;-88
2022/01/04 04:48:30;;;;;;;9.88;7.22;;;8.90;94.10;;;;;;2098926;28;20528;-91
2022/01/04 04:49:31;;;;;;;9.32;7.32;;;8.90;94.10;;;;;;2091665;28;20044;-91
2022/01/04 04:50:33;;;;;;;9.23;7.40;;;9.00;94.10;;;;;;2098293;28;20068;-91
2022/01/04 04:51:34;;;;;;;9.38;7.30;;;8.90;94.10;;;;;;2099107;28;20024;-91
2022/01/04 04:52:35;;;;;;;8.88;7.28;;;8.90;94.10;;;;;;2099144;28;20094;-88
2022/01/04 04:53:35;;;;;;;9.18;7.07;;;9.00;94.10;;;;;;2091947;28;20088;-89
2022/01/04 04:54:36;;;;;;;8.90;6.85;;;8.90;94.10;;;;;;2089877;28;20456;-92
2022/01/04 04:55:37;;;;;;;9.98;7.18;;;8.90;94.10;;;;;;2073728;28;20484;-91
2022/01/04 04:56:38;;;;;;;8.40;7.20;;;8.90;94.10;;;;;;2088337;28;20037;-92
2022/01/04 04:57:39;;;;;;;9.60;7.68;;;9.00;94.10;;;;;;2098791;28;20062;-92
2022/01/04 04:58:40;;;;;;;10.32;7.47;;;8.90;94.10;;;;;;2081987;28;20124;-92
2022/01/04 04:59:41;;;;;;;9.98;8.10;;;9.00;94.10;;;;;;2078174;28;20044;-92
2022/01/04 05:00:42;;;;;;;10.23;8.05;;;8.90;94.10;;;;;;2073885;28;20104;-91
2022/01/04 05:01:43;;;;;;;10.10;8.10;;;8.90;94.10;;;;;;2073798;28;20037;-92
2022/01/04 05:02:44;;;;;;;11.95;9.02;;;8.90;94.10;;;;;;2077600;28;20115;-92
2022/01/04 05:03:44;;;;;;;11.35;9.02;;;8.90;94.10;;;;;;2092427;28;20040;-92
2022/01/04 05:04:45;;;;;;;9.77;8.27;;;8.90;94.10;;;;;;2098882;28;20074;-91
2022/01/04 05:05:46;;;;;;;10.57;8.50;;;8.90;94.10;;;;;;2094218;28;20068;-91
2022/01/04 05:06:46;;;;;;;10.68;8.20;;;8.90;94.30;;;;;;2090268;28;20569;-92
2022/01/04 05:07:47;;;;;;;10.18;8.32;;;8.90;94.10;;;;;;2097812;28;20032;-92
2022/01/04 05:08:48;;;;;;;11.98;8.55;;;8.90;94.10;;;;;;2095368;28;20499;-92
2022/01/04 05:09:48;;;;;;;10.80;7.93;;;8.90;94.10;;;;;;2094298;28;20029;-92
2022/01/04 05:10:49;;;;;;;10.48;8.32;;;8.90;94.10;;;;;;2090158;28;20510;-92
2022/01/04 05:11:50;;;;;;;10.70;8.90;;;8.90;94.10;;;;;;2081740;28;20034;-92
2022/01/04 05:12:50;;;;;;;9.70;7.95;;;8.90;94.10;;;;;;2073592;28;20041;-92
2022/01/04 05:13:51;;;;;;;10.88;8.57;;;8.90;94.10;;;;;;2075744;28;20055;-92
2022/01/04 05:14:51;;;;;;;11.75;8.52;;;8.90;94.10;;;;;;2081220;28;20590;-92
2022/01/04 05:15:52;;;;;;;10.48;8.63;;;8.80;94.10;;;;;;2080064;28;20072;-92
2022/01/04 05:16:53;;;;;;;10.68;8.85;;;8.90;94.10;;;;;;2097752;28;20036;-92
2022/01/04 05:17:54;;;;;;;10.77;8.18;;;8.90;94.10;;;;;;2104167;28;20040;-92
2022/01/04 05:18:54;;;;;;;12.05;9.18;;;8.90;94.10;;;;;;2098551;28;20032;-92
2022/01/04 05:19:55;;;;;;;11.48;9.18;;;8.80;94.10;;;;;;2104996;28;20051;-93
2022/01/04 05:20:55;;;;;;;10.20;8.50;;;8.80;94.10;;;;;;2102345;28;20016;-92
2022/01/04 05:21:56;;;;;;;11.00;8.60;;;8.80;94.10;;;;;;2094498;28;20430;-93
2022/01/04 05:22:57;;;;;;;10.82;8.40;;;8.80;94.10;;;;;;2098491;28;20131;-92
2022/01/04 05:23:58;;;;;;;12.07;9.07;;;8.80;94.10;;;;;;2097986;28;20536;-92
2022/01/04 05:24:58;;;;;;;10.45;8.70;;;8.80;94.10;;;;;;2098512;28;20044;-92
2022/01/04 05:25:59;;;;;;;11.10;9.05;;;8.80;94.10;;;;;;2094590;28;20401;-92